Time;durP1;ratioP1;P1;durP2;ratioP2;P2;SDS_P1;SDS_P2;PMS_P1;PMS_P2;Temp;Humidity;BMP_temperature;BMP_pressure;BME280_temperature;BME280_humidity;BME280_pressure;Samples;Min_cycle;Max_cycle;Signal;HPM_P1;HPM_P2
2022/08/15 00:01:55;;;;;;;6.20;5.70;;;26.80;51.30;;;;;;5033535;28;20473;-84
2022/08/15 00:04:23;;;;;;;5.83;5.43;;;26.80;50.80;;;;;;5032308;28;20491;-86
2022/08/15 00:06:58;;;;;;;5.93;5.43;;;26.80;51.00;;;;;;5032344;28;20449;-86
2022/08/15 00:09:25;;;;;;;6.70;6.10;;;26.70;51.60;;;;;;5031658;28;20955;-84
2022/08/15 00:12:11;;;;;;;7.40;5.67;;;26.80;53.60;;;;;;5031652;28;20465;-86
2022/08/15 00:14:54;;;;;;;6.87;6.37;;;26.70;53.20;;;;;;5039544;28;20469;-84
2022/08/15 00:17:22;;;;;;;6.00;5.60;;;26.60;53.70;;;;;;5048740;28;20457;-87
2022/08/15 00:19:49;;;;;;;6.33;5.73;;;26.60;53.90;;;;;;5049272;28;20452;-85
2022/08/15 00:22:19;;;;;;;6.70;6.20;;;26.70;53.20;;;;;;5050121;28;20489;-85
2022/08/15 00:24:50;;;;;;;5.80;5.40;;;26.60;53.00;;;;;;5050355;28;20468;-85
2022/08/15 00:27:19;;;;;;;5.43;5.03;;;26.70;52.70;;;;;;5048111;28;20456;-84
2022/08/15 00:29:46;;;;;;;6.50;5.80;;;26.70;52.90;;;;;;5033837;28;21037;-85
2022/08/15 00:32:16;;;;;;;7.17;5.90;;;26.60;53.30;;;;;;5043310;28;20467;-86
2022/08/15 00:35:35;;;;;;;6.23;5.73;;;26.50;53.30;;;;;;5033191;28;20473;-85
2022/08/15 00:37:55;;;;;;;6.27;5.77;;;26.60;53.20;;;;;;5047077;28;20521;-86
2022/08/15 00:43:26;;;;;;;5.70;5.30;;;26.60;52.70;;;;;;5039103;28;20559;-86
2022/08/15 00:45:56;;;;;;;5.93;5.53;;;26.50;52.90;;;;;;5037558;28;20438;-85
2022/08/15 00:48:41;;;;;;;6.33;5.73;;;26.50;53.10;;;;;;5033015;28;20457;-85
2022/08/15 00:51:24;;;;;;;6.40;5.90;;;26.50;53.30;;;;;;5032400;28;20441;-87
2022/08/15 00:54:05;;;;;;;6.40;5.80;;;26.50;53.30;;;;;;5033251;28;20485;-85
2022/08/15 00:56:57;;;;;;;7.13;6.53;;;26.40;53.40;;;;;;5030452;28;20434;-85
2022/08/15 00:59:28;;;;;;;5.80;5.30;;;26.30;53.20;;;;;;5031375;28;20495;-85
2022/08/15 01:02:00;;;;;;;6.17;5.77;;;26.20;53.60;;;;;;5044050;28;20488;-87
2022/08/15 01:04:28;;;;;;;6.20;5.60;;;26.20;53.20;;;;;;5031790;28;21025;-86
2022/08/15 01:06:59;;;;;;;5.50;5.10;;;26.40;54.30;;;;;;5032532;28;20456;-87
2022/08/15 01:09:28;;;;;;;6.10;5.60;;;26.50;54.90;;;;;;5033781;28;20433;-85
2022/08/15 01:12:21;;;;;;;6.67;6.17;;;26.60;54.60;;;;;;5031578;28;20457;-86
2022/08/15 01:14:52;;;;;;;5.07;4.53;;;26.70;54.00;;;;;;5027492;28;22094;-85
2022/08/15 01:17:25;;;;;;;5.77;5.37;;;26.60;53.70;;;;;;5028814;28;20551;-84
2022/08/15 01:20:07;;;;;;;5.50;5.10;;;26.50;53.70;;;;;;5026925;28;20453;-84
2022/08/15 01:22:56;;;;;;;5.87;5.37;;;26.40;53.80;;;;;;5030949;28;20519;-86
2022/08/15 01:25:28;;;;;;;6.03;5.50;;;26.40;53.90;;;;;;5028671;28;20505;-86
2022/08/15 01:28:21;;;;;;;5.70;5.30;;;26.30;53.60;;;;;;5026525;28;20472;-86
2022/08/15 01:31:04;;;;;;;6.07;5.60;;;26.10;53.80;;;;;;5025878;28;20520;-85
2022/08/15 01:33:36;;;;;;;7.50;5.37;;;26.00;53.70;;;;;;5027934;28;20785;-86
2022/08/15 01:36:04;;;;;;;5.33;4.93;;;26.10;53.70;;;;;;5033626;28;20473;-87
2022/08/15 01:38:58;;;;;;;5.43;5.03;;;25.90;53.60;;;;;;5031716;28;20479;-86
2022/08/15 01:41:46;;;;;;;5.77;5.27;;;26.00;53.70;;;;;;5029896;28;20465;-87
2022/08/15 01:44:24;;;;;;;6.30;5.80;;;26.20;53.00;;;;;;5031890;28;20986;-87
2022/08/15 01:47:22;;;;;;;6.70;6.10;;;26.40;54.30;;;;;;5022656;28;20461;-86
2022/08/15 01:49:54;;;;;;;5.70;5.30;;;26.40;54.40;;;;;;5030528;28;21012;-86
2022/08/15 01:52:30;;;;;;;7.00;6.30;;;26.40;54.50;;;;;;5032008;28;20461;-86
2022/08/15 01:55:25;;;;;;;8.57;5.37;;;26.30;54.80;;;;;;5026989;28;20472;-84
2022/08/15 01:57:52;;;;;;;6.73;6.23;;;26.30;55.20;;;;;;5032356;28;20483;-85
2022/08/15 02:00:20;;;;;;;5.43;5.03;;;26.10;56.00;;;;;;5025452;28;20467;-86
2022/08/15 02:02:47;;;;;;;5.97;5.47;;;26.20;57.00;;;;;;5028720;28;20487;-86
2022/08/15 02:05:14;;;;;;;5.70;5.30;;;26.10;56.70;;;;;;5029188;28;20475;-85
2022/08/15 02:07:42;;;;;;;4.97;4.67;;;26.20;56.90;;;;;;5027829;28;20469;-85
2022/08/15 02:10:15;;;;;;;6.20;5.70;;;26.10;56.90;;;;;;5020945;28;20467;-86
2022/08/15 02:12:48;;;;;;;14.87;5.80;;;26.00;56.30;;;;;;5025475;28;20463;-85
2022/08/15 02:15:36;;;;;;;6.03;5.50;;;25.90;56.00;;;;;;5028100;28;20449;-86
2022/08/15 02:18:03;;;;;;;5.43;5.00;;;26.00;55.80;;;;;;5027343;28;20977;-84
2022/08/15 02:20:30;;;;;;;4.93;4.53;;;25.90;55.50;;;;;;5024659;28;20557;-85
2022/08/15 02:22:57;;;;;;;5.50;5.10;;;25.80;55.70;;;;;;5015070;28;20493;-86
2022/08/15 02:25:24;;;;;;;4.97;4.57;;;25.80;55.80;;;;;;5023965;28;20478;-85
2022/08/15 02:27:53;;;;;;;5.40;4.90;;;25.80;55.70;;;;;;5026803;28;20452;-86
2022/08/15 02:30:22;;;;;;;4.77;4.47;;;26.00;55.40;;;;;;5029648;28;20469;-86
2022/08/15 02:32:56;;;;;;;5.30;4.90;;;26.00;55.10;;;;;;5033952;28;20469;-86
2022/08/15 02:35:24;;;;;;;4.93;4.53;;;26.20;54.70;;;;;;5026039;28;20575;-86
2022/08/15 02:37:51;;;;;;;5.23;4.83;;;26.10;54.50;;;;;;5032804;28;20464;-86
2022/08/15 02:40:24;;;;;;;5.63;5.07;;;26.20;54.30;;;;;;5029107;28;20884;-85
2022/08/15 02:43:12;;;;;;;5.33;4.93;;;26.20;54.30;;;;;;5025167;28;20485;-85
2022/08/15 02:45:47;;;;;;;5.60;5.10;;;26.10;54.70;;;;;;5027328;28;20471;-84
2022/08/15 02:48:23;;;;;;;5.20;4.80;;;26.10;54.30;;;;;;5025154;28;20458;-86
2022/08/15 02:50:53;;;;;;;7.23;5.00;;;25.90;54.30;;;;;;5028530;28;20468;-87
2022/08/15 02:53:20;;;;;;;5.73;5.23;;;25.70;54.80;;;;;;5026623;28;20620;-87
2022/08/15 02:55:47;;;;;;;5.40;4.90;;;25.80;55.00;;;;;;5027119;28;20521;-87
2022/08/15 02:58:16;;;;;;;5.50;5.03;;;25.80;54.90;;;;;;5027519;28;20475;-86
2022/08/15 03:00:54;;;;;;;5.20;4.67;;;25.70;54.60;;;;;;5035127;28;20483;-85
2022/08/15 03:03:21;;;;;;;5.13;4.73;;;25.70;55.10;;;;;;5029313;28;20488;-85
2022/08/15 03:05:49;;;;;;;5.13;4.73;;;25.80;56.60;;;;;;5032211;28;20460;-86
2022/08/15 03:08:21;;;;;;;5.27;4.90;;;25.80;57.00;;;;;;5031000;28;20448;-84
2022/08/15 03:10:47;;;;;;;5.90;5.40;;;25.80;57.30;;;;;;5028896;28;20480;-86
2022/08/15 03:13:19;;;;;;;6.10;5.50;;;25.60;57.40;;;;;;5031668;28;20539;-84
2022/08/15 03:15:52;;;;;;;4.87;4.00;;;25.70;57.40;;;;;;5030758;28;20471;-86
2022/08/15 03:18:25;;;;;;;4.60;4.30;;;25.70;55.70;;;;;;5035546;28;20456;-86
2022/08/15 03:20:58;;;;;;;4.60;4.30;;;25.70;54.20;;;;;;5032668;28;20452;-85
2022/08/15 03:23:27;;;;;;;6.57;4.30;;;25.70;53.90;;;;;;5031630;28;20468;-87
2022/08/15 03:26:07;;;;;;;5.33;4.37;;;25.70;53.70;;;;;;5027508;28;20529;-86
2022/08/15 03:28:53;;;;;;;4.60;4.20;;;25.70;53.70;;;;;;5027334;28;20476;-86
2022/08/15 03:31:27;;;;;;;4.73;4.33;;;25.90;53.40;;;;;;5027310;28;20502;-85
2022/08/15 03:33:55;;;;;;;4.50;4.13;;;26.30;52.50;;;;;;5028371;28;20503;-86
2022/08/15 03:36:24;;;;;;;5.27;4.60;;;26.40;52.00;;;;;;5030226;28;20478;-85
2022/08/15 03:38:52;;;;;;;5.07;4.67;;;26.30;51.90;;;;;;5032655;28;20468;-86
2022/08/15 03:41:22;;;;;;;4.03;3.73;;;26.40;51.90;;;;;;5040724;28;20504;-85
2022/08/15 03:43:48;;;;;;;4.23;3.93;;;26.40;51.90;;;;;;5035284;28;20967;-85
2022/08/15 03:46:18;;;;;;;5.27;3.93;;;26.30;52.60;;;;;;5039557;28;20460;-85
2022/08/15 03:48:49;;;;;;;4.30;3.90;;;26.30;52.10;;;;;;5050579;28;20484;-84
2022/08/15 03:51:22;;;;;;;3.73;3.43;;;26.20;52.40;;;;;;5034271;28;20457;-86
2022/08/15 03:53:54;;;;;;;4.53;4.13;;;26.00;52.50;;;;;;5043814;28;20495;-84
2022/08/15 03:56:24;;;;;;;4.20;3.70;;;26.00;52.70;;;;;;5033471;28;20466;-86
2022/08/15 03:58:54;;;;;;;4.10;3.70;;;26.00;52.90;;;;;;5033739;28;20460;-87
2022/08/15 04:01:25;;;;;;;3.63;3.30;;;26.00;52.70;;;;;;5028759;28;20464;-87
2022/08/15 04:03:55;;;;;;;3.27;3.07;;;26.00;52.70;;;;;;5034922;28;21108;-86
2022/08/15 04:06:25;;;;;;;3.60;3.30;;;25.90;52.60;;;;;;5033959;28;20461;-87
2022/08/15 04:08:54;;;;;;;4.53;4.07;;;25.90;52.80;;;;;;5033228;28;20453;-86
2022/08/15 04:11:31;;;;;;;3.60;2.80;;;25.90;52.90;;;;;;5034502;28;20449;-86
2022/08/15 04:14:06;;;;;;;3.47;3.17;;;25.90;53.10;;;;;;5032858;28;20569;-86
2022/08/15 04:16:34;;;;;;;5.80;3.07;;;25.80;53.00;;;;;;5034220;28;20786;-84
2022/08/15 04:19:21;;;;;;;4.60;3.37;;;25.90;53.10;;;;;;5031718;28;20474;-84
2022/08/15 04:21:49;;;;;;;4.10;3.57;;;25.90;53.10;;;;;;5033101;28;20477;-88
2022/08/15 04:24:17;;;;;;;3.70;3.13;;;26.10;53.10;;;;;;5037358;28;20488;-84
2022/08/15 04:26:51;;;;;;;3.27;2.97;;;26.40;52.30;;;;;;5039271;28;20524;-84
2022/08/15 04:29:19;;;;;;;3.57;3.20;;;26.40;52.10;;;;;;5040817;28;20449;-84
2022/08/15 04:31:45;;;;;;;5.30;3.00;;;26.30;52.30;;;;;;5043521;28;20452;-83
2022/08/15 04:34:12;;;;;;;3.17;2.87;;;26.20;52.40;;;;;;5043149;28;20487;-87
2022/08/15 04:36:59;;;;;;;3.50;2.90;;;26.10;52.70;;;;;;5037593;28;20457;-85
2022/08/15 04:39:28;;;;;;;3.70;3.40;;;26.20;53.00;;;;;;5035223;28;20556;-84
2022/08/15 04:42:01;;;;;;;4.83;3.67;;;26.00;53.10;;;;;;5034612;28;20481;-86
2022/08/15 04:44:29;;;;;;;3.50;3.20;;;25.90;54.10;;;;;;5034127;28;20551;-84
2022/08/15 04:46:56;;;;;;;3.43;3.07;;;26.00;53.50;;;;;;5032269;28;20460;-83
2022/08/15 04:49:23;;;;;;;3.80;3.50;;;25.90;53.60;;;;;;5032700;28;20505;-88
2022/08/15 04:51:50;;;;;;;3.50;3.20;;;25.80;54.00;;;;;;5029766;28;20899;-84
2022/08/15 04:54:17;;;;;;;3.73;3.43;;;25.70;54.30;;;;;;5029375;28;20468;-83
2022/08/15 04:56:44;;;;;;;3.47;3.17;;;25.80;54.10;;;;;;5039818;28;20513;-86
2022/08/15 04:59:14;;;;;;;3.37;3.07;;;25.90;54.20;;;;;;5033667;28;20497;-86
2022/08/15 05:01:45;;;;;;;3.30;3.00;;;25.90;54.00;;;;;;5032310;28;20453;-85
2022/08/15 05:04:20;;;;;;;4.23;3.53;;;25.70;54.20;;;;;;5036556;28;20537;-85
2022/08/15 05:06:49;;;;;;;4.40;3.67;;;25.70;54.60;;;;;;5032731;28;20460;-84
2022/08/15 05:09:17;;;;;;;3.23;3.00;;;25.70;54.70;;;;;;5028841;28;20476;-85
2022/08/15 05:11:44;;;;;;;4.43;3.23;;;25.60;55.00;;;;;;5031125;28;20456;-84
2022/08/15 05:14:26;;;;;;;3.20;2.90;;;25.60;55.00;;;;;;5031694;28;20480;-85
2022/08/15 05:17:03;;;;;;;2.80;2.47;;;25.60;55.00;;;;;;5032323;28;20460;-85
2022/08/15 05:19:30;;;;;;;3.20;3.00;;;25.60;55.20;;;;;;5036051;28;20541;-86
2022/08/15 05:21:57;;;;;;;3.10;2.63;;;25.60;55.20;;;;;;5032118;28;20461;-86
2022/08/15 05:24:23;;;;;;;4.10;2.90;;;25.60;55.40;;;;;;5030364;28;21814;-85
2022/08/15 05:26:55;;;;;;;4.00;3.60;;;25.60;55.40;;;;;;5030500;28;20487;-87
2022/08/15 05:29:25;;;;;;;4.17;3.40;;;25.70;55.30;;;;;;5034174;28;20563;-86
2022/08/15 05:31:54;;;;;;;3.43;2.80;;;25.60;55.30;;;;;;5030960;28;20449;-86
2022/08/15 05:34:20;;;;;;;3.73;3.00;;;25.70;55.50;;;;;;5032644;28;20488;-87
2022/08/15 05:37:03;;;;;;;3.00;2.47;;;25.80;55.50;;;;;;5037390;28;20578;-86
2022/08/15 05:39:32;;;;;;;5.33;3.03;;;25.90;55.20;;;;;;5035719;28;20453;-87
2022/08/15 05:42:10;;;;;;;3.97;2.97;;;25.90;55.10;;;;;;5036960;28;20475;-85
2022/08/15 05:44:42;;;;;;;3.43;2.93;;;25.90;55.20;;;;;;5035524;28;20492;-85
2022/08/15 05:47:40;;;;;;;2.90;2.70;;;26.00;55.10;;;;;;5050398;28;20507;-85
2022/08/15 05:50:36;;;;;;;4.27;3.60;;;26.00;55.20;;;;;;5048649;28;20448;-86
2022/08/15 05:53:47;;;;;;;3.80;3.33;;;26.00;55.20;;;;;;5049393;28;21741;-86
2022/08/15 05:56:38;;;;;;;3.97;3.17;;;26.20;55.00;;;;;;5051630;28;20522;-85
2022/08/15 05:59:12;;;;;;;3.00;2.57;;;26.50;54.30;;;;;;5048046;28;20450;-84
2022/08/15 06:01:55;;;;;;;2.93;2.73;;;26.60;53.80;;;;;;5044606;28;20465;-85
2022/08/15 06:04:51;;;;;;;4.73;3.63;;;26.50;54.10;;;;;;5035802;28;20496;-85
2022/08/15 06:07:19;;;;;;;3.67;2.70;;;26.40;54.50;;;;;;5038053;28;20456;-86
2022/08/15 06:09:54;;;;;;;6.23;3.37;;;26.70;54.30;;;;;;5035748;28;20463;-86
2022/08/15 06:12:25;;;;;;;4.63;3.37;;;26.80;53.60;;;;;;5032561;28;20499;-86
2022/08/15 06:15:00;;;;;;;3.60;2.93;;;26.90;53.70;;;;;;5035259;28;20520;-87
2022/08/15 06:17:41;;;;;;;3.00;2.80;;;27.00;53.50;;;;;;5032313;28;20459;-86
2022/08/15 06:20:17;;;;;;;4.50;2.80;;;26.90;53.50;;;;;;5033633;28;20469;-86
2022/08/15 06:23:15;;;;;;;4.00;2.67;;;26.80;53.50;;;;;;5033595;28;20486;-86
2022/08/15 06:26:11;;;;;;;4.20;2.77;;;26.60;53.90;;;;;;5031627;28;22133;-85
2022/08/15 06:28:53;;;;;;;2.80;2.60;;;26.50;54.40;;;;;;5013883;28;20460;-84
2022/08/15 06:31:31;;;;;;;3.07;2.87;;;26.50;54.40;;;;;;5037399;28;20461;-85
2022/08/15 06:34:08;;;;;;;4.63;2.27;;;26.70;54.30;;;;;;5034591;28;20500;-86
2022/08/15 06:37:06;;;;;;;2.70;2.50;;;27.10;53.50;;;;;;5030846;28;20457;-87
2022/08/15 06:39:40;;;;;;;2.90;2.40;;;27.00;53.00;;;;;;5085966;23;20565;-86
2022/08/15 06:42:10;;;;;;;3.47;2.63;;;27.00;53.20;;;;;;5047451;28;20483;-84
2022/08/15 06:44:39;;;;;;;2.57;2.37;;;26.80;53.20;;;;;;5047085;28;21541;-85
2022/08/15 06:47:12;;;;;;;2.77;2.53;;;26.60;53.80;;;;;;5034437;28;20483;-85
2022/08/15 06:49:44;;;;;;;4.60;3.00;;;26.50;54.00;;;;;;5041183;28;20494;-84
2022/08/15 06:52:16;;;;;;;2.83;2.63;;;26.50;54.20;;;;;;5032404;28;20500;-86
2022/08/15 06:54:46;;;;;;;3.53;2.70;;;26.60;54.20;;;;;;5022740;28;20499;-87
2022/08/15 06:57:31;;;;;;;2.80;2.50;;;26.70;54.00;;;;;;5038495;28;20449;-86
2022/08/15 07:00:17;;;;;;;9.27;3.70;;;26.70;53.70;;;;;;5038957;28;20475;-86
2022/08/15 07:03:20;;;;;;;2.50;2.30;;;26.80;53.50;;;;;;5040752;28;20463;-85
2022/08/15 07:05:55;;;;;;;2.40;2.30;;;26.90;53.30;;;;;;5039183;28;20468;-86
2022/08/15 07:08:45;;;;;;;3.60;2.80;;;27.00;53.00;;;;;;5041503;28;20552;-84
2022/08/15 07:11:27;;;;;;;2.97;2.67;;;27.00;52.80;;;;;;5038884;28;20460;-86
2022/08/15 07:14:22;;;;;;;4.00;2.07;;;27.00;52.80;;;;;;5028878;28;20485;-85
2022/08/15 07:17:01;;;;;;;5.33;3.20;;;27.00;52.90;;;;;;5031142;28;20471;-87
2022/08/15 07:19:28;;;;;;;4.13;2.80;;;27.00;52.90;;;;;;5037975;28;20815;-87
2022/08/15 07:22:01;;;;;;;3.50;2.60;;;26.90;53.00;;;;;;5039443;28;20532;-84
2022/08/15 07:24:31;;;;;;;4.70;2.83;;;27.10;53.20;;;;;;5035032;28;20576;-87
2022/08/15 07:27:04;;;;;;;4.10;3.00;;;27.60;52.10;;;;;;5036864;28;20471;-86
2022/08/15 07:29:38;;;;;;;3.23;2.90;;;27.50;51.50;;;;;;5037137;28;21140;-86
2022/08/15 07:32:14;;;;;;;3.60;3.00;;;27.20;52.20;;;;;;5041620;28;20445;-87
2022/08/15 07:34:55;;;;;;;4.00;3.13;;;27.10;52.70;;;;;;5038393;28;20525;-87
2022/08/15 07:37:34;;;;;;;3.70;3.00;;;27.30;52.60;;;;;;5036995;28;20534;-86
2022/08/15 07:40:14;;;;;;;5.40;2.90;;;27.30;52.00;;;;;;5037517;28;20476;-87
2022/08/15 07:42:44;;;;;;;3.43;3.00;;;27.20;52.70;;;;;;5038345;28;20477;-89
2022/08/15 07:45:38;;;;;;;4.93;3.43;;;26.90;53.00;;;;;;5039142;28;20492;-87
2022/08/15 07:48:21;;;;;;;3.50;3.20;;;26.70;53.70;;;;;;5037030;28;20476;-86
2022/08/15 07:51:18;;;;;;;3.50;2.80;;;26.70;53.80;;;;;;5034192;28;20609;-87
2022/08/15 07:54:04;;;;;;;3.47;3.17;;;26.50;54.20;;;;;;4992648;28;20564;-86
2022/08/15 07:57:00;;;;;;;3.83;2.87;;;26.40;54.40;;;;;;5036161;28;20451;-84
2022/08/15 07:59:31;;;;;;;6.33;3.63;;;26.60;54.10;;;;;;5036659;28;20441;-86
2022/08/15 08:02:20;;;;;;;3.30;3.00;;;26.60;54.40;;;;;;5036147;28;20491;-86
2022/08/15 08:04:52;;;;;;;4.17;3.77;;;26.50;54.60;;;;;;5048552;28;20551;-85
2022/08/15 08:07:26;;;;;;;3.83;3.43;;;26.40;54.90;;;;;;5051253;28;20453;-86
2022/08/15 08:10:17;;;;;;;6.33;3.27;;;26.40;55.10;;;;;;5051531;28;20457;-86
2022/08/15 08:13:09;;;;;;;2.93;2.53;;;26.40;55.20;;;;;;5049009;28;20441;-85
2022/08/15 08:15:52;;;;;;;3.40;3.10;;;26.30;55.40;;;;;;5051985;28;21098;-86
2022/08/15 08:18:48;;;;;;;2.87;2.67;;;26.30;55.70;;;;;;5047148;28;20449;-86
2022/08/15 08:21:21;;;;;;;3.70;3.40;;;26.30;56.00;;;;;;5046218;28;20453;-86
2022/08/15 08:24:02;;;;;;;3.30;2.90;;;26.30;56.10;;;;;;5050693;28;20462;-87
2022/08/15 08:26:31;;;;;;;3.03;2.73;;;26.30;56.00;;;;;;5051628;28;20452;-86
2022/08/15 08:29:19;;;;;;;4.73;2.67;;;26.40;56.00;;;;;;5052868;28;20556;-87
2022/08/15 08:32:04;;;;;;;2.63;2.43;;;26.40;55.80;;;;;;5044107;28;20527;-86
2022/08/15 08:35:17;;;;;;;4.30;3.13;;;26.50;55.80;;;;;;5045348;28;20473;-87
2022/08/15 08:38:11;;;;;;;5.60;5.03;;;26.50;55.90;;;;;;5034542;28;20460;-85
2022/08/15 08:41:29;;;;;;;3.93;3.50;;;26.60;55.60;;;;;;5039941;28;20469;-87
2022/08/15 08:44:23;;;;;;;3.07;2.83;;;26.40;55.60;;;;;;5037132;28;20477;-87
2022/08/15 08:47:18;;;;;;;3.90;3.00;;;26.40;56.10;;;;;;5037582;28;20471;-86
2022/08/15 08:50:29;;;;;;;3.10;2.80;;;26.40;56.30;;;;;;5039583;28;20440;-87
2022/08/15 08:53:16;;;;;;;3.80;3.00;;;26.30;56.30;;;;;;5006260;28;20449;-85
2022/08/15 08:55:48;;;;;;;5.30;2.90;;;26.30;56.40;;;;;;5037102;28;20444;-85
2022/08/15 08:58:36;;;;;;;6.40;2.80;;;26.30;56.30;;;;;;5035576;28;20445;-85
2022/08/15 09:01:13;;;;;;;3.50;3.20;;;26.30;56.30;;;;;;5035066;28;20471;-85
2022/08/15 09:04:08;;;;;;;3.83;2.83;;;26.30;56.40;;;;;;5039006;28;20465;-87
2022/08/15 09:06:40;;;;;;;2.90;2.67;;;26.30;56.50;;;;;;5039340;28;20476;-87
2022/08/15 09:09:15;;;;;;;3.60;2.90;;;26.30;56.50;;;;;;5036875;28;20494;-85
2022/08/15 09:11:54;;;;;;;5.70;4.17;;;26.30;56.60;;;;;;5035105;28;20979;-85
2022/08/15 09:14:30;;;;;;;3.73;3.30;;;26.30;56.50;;;;;;5038123;28;20461;-86
2022/08/15 09:17:09;;;;;;;3.50;2.97;;;26.40;56.50;;;;;;5039545;28;20460;-87
2022/08/15 09:20:19;;;;;;;4.30;3.10;;;26.40;56.40;;;;;;5041025;28;20446;-88
2022/08/15 09:22:49;;;;;;;3.00;2.80;;;26.50;56.50;;;;;;5038225;28;20445;-88
2022/08/15 09:25:20;;;;;;;3.50;3.17;;;26.60;57.20;;;;;;5041153;28;20498;-87
2022/08/15 09:28:16;;;;;;;5.63;3.20;;;26.80;56.30;;;;;;5042124;28;20449;-86
2022/08/15 09:30:59;;;;;;;5.53;2.97;;;26.60;56.60;;;;;;5041095;28;21936;-86
2022/08/15 09:33:54;;;;;;;3.80;3.20;;;27.10;55.80;;;;;;5048942;28;20480;-87
2022/08/15 09:36:31;;;;;;;3.77;3.30;;;27.30;54.80;;;;;;5049311;28;20443;-86
2022/08/15 09:39:13;;;;;;;3.00;2.80;;;26.80;55.50;;;;;;5036884;28;20469;-86
2022/08/15 09:42:15;;;;;;;5.43;3.40;;;26.60;56.40;;;;;;5022315;28;20449;-85
2022/08/15 09:45:10;;;;;;;3.70;3.40;;;26.50;56.80;;;;;;5026278;28;20489;-85
2022/08/15 09:47:59;;;;;;;4.50;3.70;;;26.90;56.30;;;;;;5038845;28;20457;-86
2022/08/15 09:50:49;;;;;;;5.70;3.90;;;27.10;55.50;;;;;;5036736;28;20464;-87
2022/08/15 09:53:57;;;;;;;4.13;3.40;;;26.80;56.20;;;;;;5034119;28;20463;-87
2022/08/15 09:56:31;;;;;;;4.47;3.30;;;26.50;56.70;;;;;;5003712;28;20475;-86
2022/08/15 09:59:33;;;;;;;4.37;3.23;;;26.40;56.90;;;;;;5038497;28;20607;-87
2022/08/15 10:02:17;;;;;;;3.63;3.33;;;26.80;56.40;;;;;;5026921;28;20540;-86
2022/08/15 10:05:09;;;;;;;3.00;2.73;;;27.00;55.30;;;;;;5034114;28;20484;-86
2022/08/15 10:07:56;;;;;;;4.23;3.33;;;26.90;55.50;;;;;;5032121;28;20500;-86
2022/08/15 10:10:32;;;;;;;3.70;3.37;;;26.60;55.80;;;;;;5039198;28;20461;-89
2022/08/15 10:13:28;;;;;;;4.23;3.60;;;26.60;56.20;;;;;;5035807;28;20468;-86
2022/08/15 10:15:57;;;;;;;3.50;3.20;;;26.60;56.40;;;;;;5034924;28;20468;-86
2022/08/15 10:18:38;;;;;;;5.57;2.90;;;27.00;55.70;;;;;;5038511;28;20484;-88
2022/08/15 10:21:30;;;;;;;3.50;3.20;;;27.20;55.10;;;;;;5036516;28;20468;-87
2022/08/15 10:23:57;;;;;;;3.20;3.00;;;27.10;55.00;;;;;;5033749;28;20496;-88
2022/08/15 10:26:34;;;;;;;3.40;3.20;;;26.90;55.60;;;;;;5045105;28;20456;-86
2022/08/15 10:29:08;;;;;;;3.50;3.20;;;26.80;56.10;;;;;;5049452;28;20469;-85
2022/08/15 10:31:53;;;;;;;3.20;3.00;;;26.60;56.60;;;;;;5048863;28;20473;-85
2022/08/15 10:34:56;;;;;;;3.43;3.13;;;26.60;56.70;;;;;;5047597;28;20461;-87
2022/08/15 10:37:51;;;;;;;3.57;3.27;;;26.40;56.60;;;;;;5049946;28;20437;-86
2022/08/15 10:40:39;;;;;;;4.50;3.33;;;26.30;57.40;;;;;;5043780;28;20524;-88
2022/08/15 10:43:39;;;;;;;4.47;4.07;;;26.30;57.40;;;;;;5049692;28;20475;-87
2022/08/15 10:46:28;;;;;;;3.60;3.30;;;26.20;58.30;;;;;;5047343;28;20485;-84
2022/08/15 10:49:09;;;;;;;3.67;3.37;;;26.40;58.80;;;;;;5040730;28;20467;-86
2022/08/15 10:51:43;;;;;;;4.40;3.60;;;26.50;59.70;;;;;;5038291;28;20456;-87
2022/08/15 10:54:29;;;;;;;5.83;4.00;;;26.30;59.50;;;;;;5033380;28;20492;-84
2022/08/15 10:57:06;;;;;;;7.00;3.20;;;26.10;61.20;;;;;;5039268;28;20467;-87
2022/08/15 10:59:40;;;;;;;5.07;4.10;;;25.90;62.30;;;;;;5036048;28;20484;-88
2022/08/15 11:02:21;;;;;;;6.97;3.03;;;25.70;62.80;;;;;;5039975;28;20487;-87
2022/08/15 11:05:09;;;;;;;3.43;3.13;;;26.00;62.50;;;;;;5046761;28;20481;-87
2022/08/15 11:07:40;;;;;;;2.73;2.53;;;25.90;62.90;;;;;;5041250;28;20525;-86
2022/08/15 11:10:13;;;;;;;3.40;3.13;;;25.90;62.80;;;;;;5036520;28;20636;-86
2022/08/15 11:12:46;;;;;;;4.37;3.00;;;26.10;62.10;;;;;;5040722;28;20457;-88
2022/08/15 11:15:25;;;;;;;5.30;3.37;;;25.90;62.80;;;;;;5041173;28;20464;-85
2022/08/15 11:18:08;;;;;;;4.73;3.60;;;25.80;65.90;;;;;;5040929;28;20460;-86
2022/08/15 11:20:52;;;;;;;5.50;3.43;;;25.50;69.30;;;;;;5042002;28;20465;-86
2022/08/15 11:23:36;;;;;;;3.57;3.27;;;25.20;72.80;;;;;;5038254;28;20467;-86
2022/08/15 11:26:06;;;;;;;3.07;2.77;;;25.00;75.30;;;;;;5038163;28;20480;-86
2022/08/15 11:28:39;;;;;;;3.43;3.13;;;25.10;77.40;;;;;;5022506;28;20565;-85
2022/08/15 11:31:18;;;;;;;4.50;4.10;;;24.90;79.20;;;;;;5038125;28;20525;-84
2022/08/15 11:33:49;;;;;;;3.70;3.33;;;24.60;81.50;;;;;;5045380;28;20482;-87
2022/08/15 11:36:25;;;;;;;3.83;3.53;;;24.40;83.10;;;;;;5047008;28;20436;-87
2022/08/15 11:39:00;;;;;;;3.50;3.20;;;24.40;84.80;;;;;;5048132;28;20466;-87
2022/08/15 11:41:41;;;;;;;3.83;3.53;;;24.50;85.50;;;;;;5043278;28;20463;-85
2022/08/15 11:44:17;;;;;;;5.07;3.70;;;24.80;84.30;;;;;;5040943;28;20607;-86
2022/08/15 11:46:47;;;;;;;4.20;3.43;;;24.60;84.80;;;;;;5049307;28;20445;-84
2022/08/15 11:49:33;;;;;;;4.13;3.83;;;24.50;85.80;;;;;;5046876;28;20448;-86
2022/08/15 11:52:07;;;;;;;4.00;3.70;;;24.40;86.70;;;;;;5038966;28;20440;-86
2022/08/15 11:55:19;;;;;;;3.93;3.63;;;24.30;87.10;;;;;;5038377;28;20551;-86
2022/08/15 11:57:53;;;;;;;4.50;4.10;;;24.60;86.80;;;;;;5034539;28;20537;-88
2022/08/15 12:00:23;;;;;;;4.10;3.70;;;24.70;87.20;;;;;;5023334;28;20473;-85
2022/08/15 12:02:52;;;;;;;3.90;3.60;;;24.80;86.90;;;;;;5032719;28;20464;-84
2022/08/15 12:05:35;;;;;;;4.83;4.43;;;24.80;86.90;;;;;;5037416;28;20485;-86
2022/08/15 12:08:07;;;;;;;4.27;3.97;;;24.90;87.20;;;;;;5041528;28;20445;-86
2022/08/15 12:10:47;;;;;;;3.70;3.50;;;25.00;86.50;;;;;;5044368;28;20920;-86
2022/08/15 12:13:24;;;;;;;4.10;3.33;;;25.10;85.60;;;;;;5044740;28;20508;-85
2022/08/15 12:15:58;;;;;;;3.23;2.93;;;25.60;83.50;;;;;;5041630;28;20532;-85
2022/08/15 12:18:24;;;;;;;4.20;3.80;;;25.90;82.20;;;;;;5039000;28;20470;-87
2022/08/15 12:21:04;;;;;;;4.03;3.73;;;25.70;82.00;;;;;;5042014;28;20441;-86
2022/08/15 12:23:30;;;;;;;4.47;4.17;;;25.60;82.60;;;;;;5046833;28;20489;-85
2022/08/15 12:26:04;;;;;;;6.57;3.70;;;25.70;82.50;;;;;;5052758;28;20491;-86
2022/08/15 12:28:49;;;;;;;4.07;3.77;;;25.60;82.70;;;;;;5053283;28;20445;-86
2022/08/15 12:31:34;;;;;;;3.97;3.70;;;25.70;82.10;;;;;;5045901;28;20551;-86
2022/08/15 12:34:09;;;;;;;3.63;3.33;;;25.80;81.10;;;;;;5045795;28;20468;-87
2022/08/15 12:36:52;;;;;;;4.43;4.03;;;25.70;80.70;;;;;;5037173;28;20458;-86
2022/08/15 12:39:27;;;;;;;3.17;2.87;;;25.60;80.80;;;;;;5035303;28;20460;-86
2022/08/15 12:41:57;;;;;;;4.13;3.47;;;26.00;79.20;;;;;;5038625;28;20454;-87
2022/08/15 12:44:46;;;;;;;4.23;3.17;;;26.50;76.40;;;;;;5034342;28;20519;-86
2022/08/15 12:47:14;;;;;;;3.57;3.27;;;26.80;73.90;;;;;;5035109;28;20497;-86
2022/08/15 12:49:41;;;;;;;4.17;3.87;;;26.70;72.10;;;;;;5039245;28;20545;-87
2022/08/15 12:52:12;;;;;;;6.67;3.83;;;26.50;73.50;;;;;;5037735;28;20543;-87
2022/08/15 12:54:39;;;;;;;3.40;3.20;;;26.50;74.20;;;;;;5038602;28;20496;-87
2022/08/15 12:57:07;;;;;;;4.90;4.50;;;26.50;72.80;;;;;;5039383;28;20465;-87
2022/08/15 12:59:40;;;;;;;3.77;3.40;;;26.60;71.30;;;;;;5039546;28;20449;-86
2022/08/15 13:02:11;;;;;;;3.80;3.43;;;26.70;71.40;;;;;;5041734;28;20465;-87
2022/08/15 13:04:45;;;;;;;3.20;2.93;;;26.60;69.60;;;;;;5040910;28;20480;-88
2022/08/15 13:07:24;;;;;;;3.10;2.90;;;26.90;69.80;;;;;;5039061;28;20826;-87
2022/08/15 13:09:57;;;;;;;3.70;3.43;;;27.20;67.70;;;;;;5035208;28;20874;-86
2022/08/15 13:12:25;;;;;;;4.00;3.70;;;27.60;65.50;;;;;;5040580;28;20522;-89
2022/08/15 13:14:52;;;;;;;4.10;3.70;;;27.40;65.60;;;;;;5040122;28;20476;-86
2022/08/15 13:17:27;;;;;;;4.00;3.67;;;27.20;66.60;;;;;;5037562;28;20521;-87
2022/08/15 13:25:45;;;;;;;3.50;3.20;;;27.30;66.00;;;;;;5040619;28;20530;-87
2022/08/15 13:28:13;;;;;;;3.60;3.30;;;27.80;63.80;;;;;;5042688;28;20480;-87
2022/08/15 13:30:41;;;;;;;4.07;3.73;;;28.00;62.60;;;;;;5040980;28;20552;-87
2022/08/15 13:33:26;;;;;;;4.17;3.77;;;28.00;62.60;;;;;;5048049;28;20490;-87
2022/08/15 13:35:55;;;;;;;3.17;2.97;;;28.40;60.50;;;;;;5049129;28;20437;-86
2022/08/15 13:38:29;;;;;;;4.20;3.80;;;28.40;58.60;;;;;;5048351;28;20529;-88
2022/08/15 13:40:58;;;;;;;4.00;3.30;;;28.20;59.00;;;;;;5050323;28;20488;-88
2022/08/15 13:43:28;;;;;;;3.17;2.97;;;28.00;59.70;;;;;;5048157;28;20450;-88
2022/08/15 13:46:01;;;;;;;4.37;3.93;;;27.90;59.00;;;;;;5045507;28;20474;-85
2022/08/15 13:48:36;;;;;;;3.30;3.10;;;27.80;58.70;;;;;;5050998;28;20524;-87
2022/08/15 13:51:13;;;;;;;3.20;2.87;;;27.90;58.10;;;;;;5047721;28;20466;-86